sensor_id;sensor_type;location;lat;lon;timestamp;temperature;humidity
11242;DHT22;5678;52.370;9.006;2023-03-14T00:00:24;11.50;99.90
11242;DHT22;5678;52.370;9.006;2023-03-14T00:02:52;10.60;99.90
11242;DHT22;5678;52.370;9.006;2023-03-14T00:05:20;10.60;99.90
11242;DHT22;5678;52.370;9.006;2023-03-14T00:07:48;11.10;99.90
11242;DHT22;5678;52.370;9.006;2023-03-14T00:10:16;12.50;99.90
11242;DHT22;5678;52.370;9.006;2023-03-14T00:12:44;10.60;99.90
11242;DHT22;5678;52.370;9.006;2023-03-14T00:15:12;10.50;99.90
11242;DHT22;5678;52.370;9.006;2023-03-14T00:17:43;10.50;99.90
11242;DHT22;5678;52.370;9.006;2023-03-14T00:20:11;10.50;99.90
11242;DHT22;5678;52.370;9.006;2023-03-14T00:22:40;10.50;99.90
11242;DHT22;5678;52.370;9.006;2023-03-14T00:25:09;10.60;99.90
11242;DHT22;5678;52.370;9.006;2023-03-14T00:27:38;10.50;99.90
11242;DHT22;5678;52.370;9.006;2023-03-14T00:30:08;10.60;99.90
11242;DHT22;5678;52.370;9.006;2023-03-14T00:32:37;10.60;99.90
11242;DHT22;5678;52.370;9.006;2023-03-14T00:35:07;10.30;99.90
11242;DHT22;5678;52.370;9.006;2023-03-14T00:37:35;10.60;99.90
11242;DHT22;5678;52.370;9.006;2023-03-14T00:40:03;10.60;99.90
11242;DHT22;5678;52.370;9.006;2023-03-14T00:42:33;10.60;99.90
11242;DHT22;5678;52.370;9.006;2023-03-14T00:45:01;10.70;99.90
11242;DHT22;5678;52.370;9.006;2023-03-14T00:47:30;11.50;99.90
11242;DHT22;5678;52.370;9.006;2023-03-14T00:49:58;11.50;99.90
11242;DHT22;5678;52.370;9.006;2023-03-14T00:52:27;10.70;99.90
11242;DHT22;5678;52.370;9.006;2023-03-14T00:54:55;10.70;99.90
11242;DHT22;5678;52.370;9.006;2023-03-14T00:57:23;10.70;99.90
11242;DHT22;5678;52.370;9.006;2023-03-14T00:59:51;10.70;99.90
11242;DHT22;5678;52.370;9.006;2023-03-14T01:02:19;10.60;99.90
11242;DHT22;5678;52.370;9.006;2023-03-14T01:04:47;10.70;99.90
11242;DHT22;5678;52.370;9.006;2023-03-14T01:07:16;10.60;99.90
11242;DHT22;5678;52.370;9.006;2023-03-14T01:09:45;12.80;99.90
11242;DHT22;5678;52.370;9.006;2023-03-14T01:12:13;10.80;99.90
11242;DHT22;5678;52.370;9.006;2023-03-14T01:14:41;10.60;99.90
11242;DHT22;5678;52.370;9.006;2023-03-14T01:17:09;10.60;99.90
11242;DHT22;5678;52.370;9.006;2023-03-14T01:19:36;12.50;99.90
11242;DHT22;5678;52.370;9.006;2023-03-14T01:22:04;10.70;99.90
11242;DHT22;5678;52.370;9.006;2023-03-14T01:24:32;10.70;99.90
11242;DHT22;5678;52.370;9.006;2023-03-14T01:27:02;10.70;99.90
11242;DHT22;5678;52.370;9.006;2023-03-14T01:29:30;10.70;99.90
11242;DHT22;5678;52.370;9.006;2023-03-14T01:31:58;10.50;99.90
11242;DHT22;5678;52.370;9.006;2023-03-14T01:34:26;10.70;99.90
11242;DHT22;5678;52.370;9.006;2023-03-14T01:36:53;10.60;99.90
11242;DHT22;5678;52.370;9.006;2023-03-14T01:39:21;10.70;99.90
11242;DHT22;5678;52.370;9.006;2023-03-14T01:41:49;10.70;99.90
11242;DHT22;5678;52.370;9.006;2023-03-14T01:44:18;10.70;99.90
11242;DHT22;5678;52.370;9.006;2023-03-14T01:46:47;10.70;99.90
11242;DHT22;5678;52.370;9.006;2023-03-14T01:49:20;10.60;99.90
11242;DHT22;5678;52.370;9.006;2023-03-14T01:51:52;10.60;99.90
11242;DHT22;5678;52.370;9.006;2023-03-14T01:54:24;10.50;99.90
11242;DHT22;5678;52.370;9.006;2023-03-14T01:56:55;12.80;99.90
11242;DHT22;5678;52.370;9.006;2023-03-14T01:59:26;10.70;99.90
11242;DHT22;5678;52.370;9.006;2023-03-14T02:01:55;11.50;99.90
11242;DHT22;5678;52.370;9.006;2023-03-14T02:04:26;10.80;99.90
11242;DHT22;5678;52.370;9.006;2023-03-14T02:07:00;10.80;99.90
11242;DHT22;5678;52.370;9.006;2023-03-14T02:09:30;10.80;99.90
11242;DHT22;5678;52.370;9.006;2023-03-14T02:11:59;12.80;99.90
11242;DHT22;5678;52.370;9.006;2023-03-14T02:14:32;10.90;99.90
11242;DHT22;5678;52.370;9.006;2023-03-14T02:17:01;11.50;99.90
11242;DHT22;5678;52.370;9.006;2023-03-14T02:19:46;12.00;99.90
11242;DHT22;5678;52.370;9.006;2023-03-14T02:22:17;11.60;99.90
11242;DHT22;5678;52.370;9.006;2023-03-14T02:24:50;11.00;99.90
11242;DHT22;5678;52.370;9.006;2023-03-14T02:27:23;11.00;99.90
11242;DHT22;5678;52.370;9.006;2023-03-14T02:29:53;11.20;99.90
11242;DHT22;5678;52.370;9.006;2023-03-14T02:32:22;11.10;99.90
11242;DHT22;5678;52.370;9.006;2023-03-14T02:34:54;12.50;99.90
11242;DHT22;5678;52.370;9.006;2023-03-14T02:37:25;11.10;99.90
11242;DHT22;5678;52.370;9.006;2023-03-14T02:39:54;11.10;99.90
11242;DHT22;5678;52.370;9.006;2023-03-14T02:42:24;11.00;99.90
11242;DHT22;5678;52.370;9.006;2023-03-14T02:44:53;12.70;99.90
11242;DHT22;5678;52.370;9.006;2023-03-14T02:47:27;12.00;99.90
11242;DHT22;5678;52.370;9.006;2023-03-14T02:50:01;10.90;99.90
11242;DHT22;5678;52.370;9.006;2023-03-14T02:52:30;10.90;99.90
11242;DHT22;5678;52.370;9.006;2023-03-14T02:54:58;10.90;99.90
11242;DHT22;5678;52.370;9.006;2023-03-14T02:57:27;10.90;99.90
11242;DHT22;5678;52.370;9.006;2023-03-14T02:59:58;11.00;99.90
11242;DHT22;5678;52.370;9.006;2023-03-14T03:02:26;11.00;99.90
11242;DHT22;5678;52.370;9.006;2023-03-14T03:04:54;10.70;99.90
11242;DHT22;5678;52.370;9.006;2023-03-14T03:07:22;11.00;99.90
11242;DHT22;5678;52.370;9.006;2023-03-14T03:09:50;10.50;99.90
11242;DHT22;5678;52.370;9.006;2023-03-14T03:12:17;11.00;99.90
11242;DHT22;5678;52.370;9.006;2023-03-14T03:14:47;10.60;99.90
11242;DHT22;5678;52.370;9.006;2023-03-14T03:17:15;12.70;99.90
11242;DHT22;5678;52.370;9.006;2023-03-14T03:19:43;10.60;99.90
11242;DHT22;5678;52.370;9.006;2023-03-14T03:22:11;10.40;99.90
11242;DHT22;5678;52.370;9.006;2023-03-14T03:24:39;9.80;99.90
11242;DHT22;5678;52.370;9.006;2023-03-14T03:27:07;12.00;99.90
11242;DHT22;5678;52.370;9.006;2023-03-14T03:29:34;11.50;99.90
11242;DHT22;5678;52.370;9.006;2023-03-14T03:32:04;9.70;99.90
11242;DHT22;5678;52.370;9.006;2023-03-14T03:34:32;9.60;99.90
11242;DHT22;5678;52.370;9.006;2023-03-14T03:37:00;9.50;99.90
11242;DHT22;5678;52.370;9.006;2023-03-14T03:39:27;9.40;99.90
11242;DHT22;5678;52.370;9.006;2023-03-14T03:41:55;9.30;99.90
11242;DHT22;5678;52.370;9.006;2023-03-14T03:44:23;9.20;99.90
11242;DHT22;5678;52.370;9.006;2023-03-14T03:46:51;9.10;99.90
11242;DHT22;5678;52.370;9.006;2023-03-14T03:49:20;9.10;99.90
11242;DHT22;5678;52.370;9.006;2023-03-14T03:51:48;9.00;99.90
11242;DHT22;5678;52.370;9.006;2023-03-14T03:54:16;9.00;99.90
11242;DHT22;5678;52.370;9.006;2023-03-14T03:56:44;8.90;99.90
11242;DHT22;5678;52.370;9.006;2023-03-14T03:59:12;8.90;99.90
11242;DHT22;5678;52.370;9.006;2023-03-14T04:01:40;8.80;99.90
11242;DHT22;5678;52.370;9.006;2023-03-14T04:04:08;8.80;99.90
11242;DHT22;5678;52.370;9.006;2023-03-14T04:06:38;8.80;99.90
11242;DHT22;5678;52.370;9.006;2023-03-14T04:09:06;8.80;99.90
11242;DHT22;5678;52.370;9.006;2023-03-14T04:11:35;8.70;99.90
11242;DHT22;5678;52.370;9.006;2023-03-14T04:14:03;8.70;99.90
11242;DHT22;5678;52.370;9.006;2023-03-14T04:16:31;8.60;99.90
11242;DHT22;5678;52.370;9.006;2023-03-14T04:18:59;8.60;99.90
11242;DHT22;5678;52.370;9.006;2023-03-14T04:21:27;8.60;99.90
11242;DHT22;5678;52.370;9.006;2023-03-14T04:23:56;8.50;99.90
11242;DHT22;5678;52.370;9.006;2023-03-14T04:26:24;8.50;99.90
11242;DHT22;5678;52.370;9.006;2023-03-14T04:28:52;8.50;99.90
11242;DHT22;5678;52.370;9.006;2023-03-14T04:31:21;8.40;99.90
11242;DHT22;5678;52.370;9.006;2023-03-14T04:33:49;8.40;99.90
11242;DHT22;5678;52.370;9.006;2023-03-14T04:36:17;8.40;99.90
11242;DHT22;5678;52.370;9.006;2023-03-14T04:38:45;8.40;99.90
11242;DHT22;5678;52.370;9.006;2023-03-14T04:41:14;8.40;99.90
11242;DHT22;5678;52.370;9.006;2023-03-14T04:43:42;8.30;99.90
11242;DHT22;5678;52.370;9.006;2023-03-14T04:46:10;8.30;99.90
11242;DHT22;5678;52.370;9.006;2023-03-14T04:48:38;8.30;99.90
11242;DHT22;5678;52.370;9.006;2023-03-14T04:51:06;8.40;99.90
11242;DHT22;5678;52.370;9.006;2023-03-14T04:53:34;8.30;99.90
11242;DHT22;5678;52.370;9.006;2023-03-14T04:56:04;8.20;99.90
11242;DHT22;5678;52.370;9.006;2023-03-14T04:58:33;8.20;99.90
11242;DHT22;5678;52.370;9.006;2023-03-14T05:01:02;8.20;99.90
11242;DHT22;5678;52.370;9.006;2023-03-14T05:03:30;8.20;99.90
11242;DHT22;5678;52.370;9.006;2023-03-14T05:05:58;8.20;99.90
11242;DHT22;5678;52.370;9.006;2023-03-14T05:08:27;8.10;99.90
11242;DHT22;5678;52.370;9.006;2023-03-14T05:10:56;8.10;99.90
11242;DHT22;5678;52.370;9.006;2023-03-14T05:13:24;8.10;99.90
11242;DHT22;5678;52.370;9.006;2023-03-14T05:15:53;8.10;99.90
11242;DHT22;5678;52.370;9.006;2023-03-14T05:18:22;8.10;99.90
11242;DHT22;5678;52.370;9.006;2023-03-14T05:20:50;8.10;99.90
11242;DHT22;5678;52.370;9.006;2023-03-14T05:23:18;8.20;99.90
11242;DHT22;5678;52.370;9.006;2023-03-14T05:25:46;8.20;99.90
11242;DHT22;5678;52.370;9.006;2023-03-14T05:28:14;8.20;99.90
11242;DHT22;5678;52.370;9.006;2023-03-14T05:30:42;8.20;99.90
11242;DHT22;5678;52.370;9.006;2023-03-14T05:33:12;8.20;99.90
11242;DHT22;5678;52.370;9.006;2023-03-14T05:35:39;8.10;99.90
11242;DHT22;5678;52.370;9.006;2023-03-14T05:38:07;8.50;99.90
11242;DHT22;5678;52.370;9.006;2023-03-14T05:40:35;8.10;99.90
11242;DHT22;5678;52.370;9.006;2023-03-14T05:43:03;8.20;99.90
11242;DHT22;5678;52.370;9.006;2023-03-14T05:45:34;8.20;99.90
11242;DHT22;5678;52.370;9.006;2023-03-14T05:48:03;8.30;99.90
11242;DHT22;5678;52.370;9.006;2023-03-14T05:50:32;8.30;99.90
11242;DHT22;5678;52.370;9.006;2023-03-14T05:53:00;8.30;99.90
11242;DHT22;5678;52.370;9.006;2023-03-14T05:55:28;8.40;99.90
11242;DHT22;5678;52.370;9.006;2023-03-14T05:57:56;8.40;99.90
11242;DHT22;5678;52.370;9.006;2023-03-14T06:00:24;8.40;99.90
11242;DHT22;5678;52.370;9.006;2023-03-14T06:02:52;8.50;99.90
11242;DHT22;5678;52.370;9.006;2023-03-14T06:05:20;8.50;99.90
11242;DHT22;5678;52.370;9.006;2023-03-14T06:07:49;8.60;99.90
11242;DHT22;5678;52.370;9.006;2023-03-14T06:10:17;8.60;99.90
11242;DHT22;5678;52.370;9.006;2023-03-14T06:12:45;8.70;99.90
11242;DHT22;5678;52.370;9.006;2023-03-14T06:15:12;8.70;99.90
11242;DHT22;5678;52.370;9.006;2023-03-14T06:17:40;8.80;99.90
11242;DHT22;5678;52.370;9.006;2023-03-14T06:20:09;8.80;99.90
11242;DHT22;5678;52.370;9.006;2023-03-14T06:22:38;8.80;99.90
11242;DHT22;5678;52.370;9.006;2023-03-14T06:25:08;8.90;99.90
11242;DHT22;5678;52.370;9.006;2023-03-14T06:27:36;8.90;99.90
11242;DHT22;5678;52.370;9.006;2023-03-14T06:30:05;8.90;99.90
11242;DHT22;5678;52.370;9.006;2023-03-14T06:32:33;9.00;99.90
11242;DHT22;5678;52.370;9.006;2023-03-14T06:35:01;8.90;99.90
11242;DHT22;5678;52.370;9.006;2023-03-14T06:37:29;9.00;99.90
11242;DHT22;5678;52.370;9.006;2023-03-14T06:39:57;9.00;99.90
11242;DHT22;5678;52.370;9.006;2023-03-14T06:42:27;8.60;99.90
11242;DHT22;5678;52.370;9.006;2023-03-14T06:44:55;9.00;99.90
11242;DHT22;5678;52.370;9.006;2023-03-14T06:47:22;9.00;99.90
11242;DHT22;5678;52.370;9.006;2023-03-14T06:49:50;9.00;99.90
11242;DHT22;5678;52.370;9.006;2023-03-14T06:52:18;9.10;99.90
11242;DHT22;5678;52.370;9.006;2023-03-14T06:54:46;9.10;99.90
11242;DHT22;5678;52.370;9.006;2023-03-14T06:57:14;9.20;99.90
11242;DHT22;5678;52.370;9.006;2023-03-14T06:59:43;9.20;99.90
11242;DHT22;5678;52.370;9.006;2023-03-14T07:02:11;9.30;99.90
11242;DHT22;5678;52.370;9.006;2023-03-14T07:04:40;9.30;99.90
11242;DHT22;5678;52.370;9.006;2023-03-14T07:07:08;9.30;99.90
11242;DHT22;5678;52.370;9.006;2023-03-14T07:09:36;9.30;99.90
11242;DHT22;5678;52.370;9.006;2023-03-14T07:12:04;9.30;99.90
11242;DHT22;5678;52.370;9.006;2023-03-14T07:14:32;9.30;99.90
11242;DHT22;5678;52.370;9.006;2023-03-14T07:17:01;9.30;99.90
11242;DHT22;5678;52.370;9.006;2023-03-14T07:19:29;9.20;99.90
11242;DHT22;5678;52.370;9.006;2023-03-14T07:21:57;9.20;99.90
11242;DHT22;5678;52.370;9.006;2023-03-14T07:24:25;9.30;99.90
11242;DHT22;5678;52.370;9.006;2023-03-14T07:26:53;9.30;99.90
11242;DHT22;5678;52.370;9.006;2023-03-14T07:29:21;9.40;99.90
11242;DHT22;5678;52.370;9.006;2023-03-14T07:31:49;9.60;99.90
11242;DHT22;5678;52.370;9.006;2023-03-14T07:34:18;9.80;99.90
11242;DHT22;5678;52.370;9.006;2023-03-14T07:36:47;10.00;99.90
11242;DHT22;5678;52.370;9.006;2023-03-14T07:39:14;10.10;99.90
11242;DHT22;5678;52.370;9.006;2023-03-14T07:41:42;10.30;99.90
11242;DHT22;5678;52.370;9.006;2023-03-14T07:44:10;10.40;99.90
11242;DHT22;5678;52.370;9.006;2023-03-14T07:46:38;11.00;99.90
11242;DHT22;5678;52.370;9.006;2023-03-14T07:49:06;10.60;99.90
11242;DHT22;5678;52.370;9.006;2023-03-14T07:51:35;10.50;99.90
11242;DHT22;5678;52.370;9.006;2023-03-14T07:54:03;10.50;99.90
11242;DHT22;5678;52.370;9.006;2023-03-14T07:56:31;10.50;99.90
11242;DHT22;5678;52.370;9.006;2023-03-14T07:58:59;10.40;99.90
11242;DHT22;5678;52.370;9.006;2023-03-14T08:01:28;10.40;99.90
11242;DHT22;5678;52.370;9.006;2023-03-14T08:03:55;10.40;99.90
11242;DHT22;5678;52.370;9.006;2023-03-14T08:06:23;10.30;99.90
11242;DHT22;5678;52.370;9.006;2023-03-14T08:08:53;10.20;99.90
11242;DHT22;5678;52.370;9.006;2023-03-14T08:11:21;10.10;99.90
11242;DHT22;5678;52.370;9.006;2023-03-14T08:13:48;10.10;99.90
11242;DHT22;5678;52.370;9.006;2023-03-14T08:16:18;10.00;99.90
11242;DHT22;5678;52.370;9.006;2023-03-14T08:18:46;9.90;99.90
11242;DHT22;5678;52.370;9.006;2023-03-14T08:21:14;9.90;99.90
11242;DHT22;5678;52.370;9.006;2023-03-14T08:23:42;9.90;99.90
11242;DHT22;5678;52.370;9.006;2023-03-14T08:26:11;9.90;99.90
11242;DHT22;5678;52.370;9.006;2023-03-14T08:28:39;10.40;99.90
11242;DHT22;5678;52.370;9.006;2023-03-14T08:31:07;10.00;99.90
11242;DHT22;5678;52.370;9.006;2023-03-14T08:33:35;10.00;99.90
11242;DHT22;5678;52.370;9.006;2023-03-14T08:36:03;10.00;99.90
11242;DHT22;5678;52.370;9.006;2023-03-14T08:38:31;10.00;99.90
11242;DHT22;5678;52.370;9.006;2023-03-14T08:41:00;10.10;99.90
11242;DHT22;5678;52.370;9.006;2023-03-14T08:43:30;10.10;99.90
11242;DHT22;5678;52.370;9.006;2023-03-14T08:45:58;10.10;99.90
11242;DHT22;5678;52.370;9.006;2023-03-14T08:48:27;10.00;99.90
11242;DHT22;5678;52.370;9.006;2023-03-14T08:50:56;10.00;99.90
11242;DHT22;5678;52.370;9.006;2023-03-14T08:53:24;10.00;99.90
11242;DHT22;5678;52.370;9.006;2023-03-14T08:55:53;10.00;99.90
11242;DHT22;5678;52.370;9.006;2023-03-14T08:58:21;10.20;99.90
11242;DHT22;5678;52.370;9.006;2023-03-14T09:00:51;10.10;99.90
11242;DHT22;5678;52.370;9.006;2023-03-14T09:03:19;10.30;99.90
11242;DHT22;5678;52.370;9.006;2023-03-14T09:05:49;10.40;99.90
11242;DHT22;5678;52.370;9.006;2023-03-14T09:08:17;10.80;99.90
11242;DHT22;5678;52.370;9.006;2023-03-14T09:10:45;10.60;99.90
11242;DHT22;5678;52.370;9.006;2023-03-14T09:13:13;10.70;99.90
11242;DHT22;5678;52.370;9.006;2023-03-14T09:15:41;10.80;99.90
11242;DHT22;5678;52.370;9.006;2023-03-14T09:18:11;11.00;99.90
11242;DHT22;5678;52.370;9.006;2023-03-14T09:20:39;11.10;99.90
11242;DHT22;5678;52.370;9.006;2023-03-14T09:23:08;11.30;99.90
11242;DHT22;5678;52.370;9.006;2023-03-14T09:25:36;11.30;99.90
11242;DHT22;5678;52.370;9.006;2023-03-14T09:28:04;11.50;99.90
11242;DHT22;5678;52.370;9.006;2023-03-14T09:30:33;11.60;99.90
11242;DHT22;5678;52.370;9.006;2023-03-14T09:33:00;11.80;99.90
11242;DHT22;5678;52.370;9.006;2023-03-14T09:35:30;11.80;99.90
11242;DHT22;5678;52.370;9.006;2023-03-14T09:37:58;11.80;99.90
11242;DHT22;5678;52.370;9.006;2023-03-14T09:40:31;11.80;99.90
11242;DHT22;5678;52.370;9.006;2023-03-14T09:43:02;11.70;99.90
11242;DHT22;5678;52.370;9.006;2023-03-14T09:45:33;11.70;99.90
11242;DHT22;5678;52.370;9.006;2023-03-14T09:48:02;11.60;99.90
11242;DHT22;5678;52.370;9.006;2023-03-14T09:50:37;11.70;99.90
11242;DHT22;5678;52.370;9.006;2023-03-14T09:53:11;11.50;99.90
11242;DHT22;5678;52.370;9.006;2023-03-14T09:55:42;11.60;99.90
11242;DHT22;5678;52.370;9.006;2023-03-14T09:58:13;11.70;99.90
11242;DHT22;5678;52.370;9.006;2023-03-14T10:00:42;11.70;99.90
11242;DHT22;5678;52.370;9.006;2023-03-14T10:03:22;11.70;99.90
11242;DHT22;5678;52.370;9.006;2023-03-14T10:05:54;11.60;99.90
11242;DHT22;5678;52.370;9.006;2023-03-14T10:08:22;11.50;99.90
11242;DHT22;5678;52.370;9.006;2023-03-14T10:10:50;11.00;99.90
11242;DHT22;5678;52.370;9.006;2023-03-14T10:13:21;11.40;99.90
11242;DHT22;5678;52.370;9.006;2023-03-14T10:15:53;11.30;99.90
11242;DHT22;5678;52.370;9.006;2023-03-14T10:21:31;11.40;99.90
11242;DHT22;5678;52.370;9.006;2023-03-14T10:24:19;11.40;99.90
11242;DHT22;5678;52.370;9.006;2023-03-14T10:26:48;11.40;99.90
11242;DHT22;5678;52.370;9.006;2023-03-14T10:29:17;11.30;99.90
11242;DHT22;5678;52.370;9.006;2023-03-14T10:31:47;11.30;99.90
11242;DHT22;5678;52.370;9.006;2023-03-14T10:34:24;11.20;99.90
11242;DHT22;5678;52.370;9.006;2023-03-14T10:36:55;10.90;99.90
11242;DHT22;5678;52.370;9.006;2023-03-14T10:39:34;10.40;99.90
11242;DHT22;5678;52.370;9.006;2023-03-14T10:42:12;9.90;99.90
11242;DHT22;5678;52.370;9.006;2023-03-14T10:44:42;9.60;99.90
11242;DHT22;5678;52.370;9.006;2023-03-14T10:47:17;9.30;99.90
11242;DHT22;5678;52.370;9.006;2023-03-14T10:49:46;8.70;99.90
11242;DHT22;5678;52.370;9.006;2023-03-14T10:52:21;8.70;99.90
11242;DHT22;5678;52.370;9.006;2023-03-14T10:54:58;7.70;99.90
11242;DHT22;5678;52.370;9.006;2023-03-14T10:57:26;7.70;99.90
11242;DHT22;5678;52.370;9.006;2023-03-14T10:59:55;7.60;99.90
11242;DHT22;5678;52.370;9.006;2023-03-14T11:02:34;7.50;99.90
11242;DHT22;5678;52.370;9.006;2023-03-14T11:05:14;7.40;99.90
11242;DHT22;5678;52.370;9.006;2023-03-14T11:07:46;7.30;99.90
11242;DHT22;5678;52.370;9.006;2023-03-14T11:10:19;7.80;99.90
11242;DHT22;5678;52.370;9.006;2023-03-14T11:12:58;7.00;99.90
11242;DHT22;5678;52.370;9.006;2023-03-14T11:15:32;6.50;99.90
11242;DHT22;5678;52.370;9.006;2023-03-14T11:18:49;6.20;99.90
11242;DHT22;5678;52.370;9.006;2023-03-14T11:21:21;5.70;99.90
11242;DHT22;5678;52.370;9.006;2023-03-14T11:24:04;5.50;99.90
11242;DHT22;5678;52.370;9.006;2023-03-14T11:26:39;5.30;99.90
11242;DHT22;5678;52.370;9.006;2023-03-14T11:29:18;6.00;99.90
11242;DHT22;5678;52.370;9.006;2023-03-14T11:31:48;4.90;99.90
11242;DHT22;5678;52.370;9.006;2023-03-14T11:34:17;4.80;99.90
11242;DHT22;5678;52.370;9.006;2023-03-14T11:36:51;4.60;99.90
11242;DHT22;5678;52.370;9.006;2023-03-14T11:39:22;4.70;99.90
11242;DHT22;5678;52.370;9.006;2023-03-14T11:41:52;4.30;99.90
11242;DHT22;5678;52.370;9.006;2023-03-14T11:44:24;4.30;99.90
11242;DHT22;5678;52.370;9.006;2023-03-14T11:46:57;5.10;99.90
11242;DHT22;5678;52.370;9.006;2023-03-14T11:49:34;4.30;99.90
11242;DHT22;5678;52.370;9.006;2023-03-14T11:52:09;4.40;99.90
11242;DHT22;5678;52.370;9.006;2023-03-14T11:54:44;5.30;99.90
11242;DHT22;5678;52.370;9.006;2023-03-14T11:57:17;4.30;99.90
11242;DHT22;5678;52.370;9.006;2023-03-14T11:59:50;4.30;99.90
11242;DHT22;5678;52.370;9.006;2023-03-14T12:02:24;4.30;99.90
11242;DHT22;5678;52.370;9.006;2023-03-14T12:05:16;4.30;99.90
11242;DHT22;5678;52.370;9.006;2023-03-14T12:10:44;4.80;99.90
11242;DHT22;5678;52.370;9.006;2023-03-14T12:13:15;4.50;99.90
11242;DHT22;5678;52.370;9.006;2023-03-14T12:15:48;5.00;99.90
11242;DHT22;5678;52.370;9.006;2023-03-14T12:18:20;4.70;99.90
11242;DHT22;5678;52.370;9.006;2023-03-14T12:21:00;5.70;99.90
11242;DHT22;5678;52.370;9.006;2023-03-14T12:23:35;5.00;99.90
11242;DHT22;5678;52.370;9.006;2023-03-14T12:26:14;5.10;99.90
11242;DHT22;5678;52.370;9.006;2023-03-14T12:28:44;5.20;99.90
11242;DHT22;5678;52.370;9.006;2023-03-14T12:31:36;6.20;99.90
11242;DHT22;5678;52.370;9.006;2023-03-14T12:34:31;5.70;99.90
11242;DHT22;5678;52.370;9.006;2023-03-14T12:37:10;5.70;99.90
11242;DHT22;5678;52.370;9.006;2023-03-14T12:39:49;5.70;99.90
11242;DHT22;5678;52.370;9.006;2023-03-14T12:42:37;5.60;99.90
11242;DHT22;5678;52.370;9.006;2023-03-14T12:48:09;5.60;99.90
11242;DHT22;5678;52.370;9.006;2023-03-14T12:50:43;5.60;99.90
11242;DHT22;5678;52.370;9.006;2023-03-14T12:53:48;6.60;99.90
11242;DHT22;5678;52.370;9.006;2023-03-14T12:56:25;5.70;99.90
11242;DHT22;5678;52.370;9.006;2023-03-14T12:59:09;6.40;99.90
11242;DHT22;5678;52.370;9.006;2023-03-14T13:01:47;5.80;99.90
11242;DHT22;5678;52.370;9.006;2023-03-14T13:04:16;6.10;99.90
11242;DHT22;5678;52.370;9.006;2023-03-14T13:06:56;5.80;99.90
11242;DHT22;5678;52.370;9.006;2023-03-14T13:10:05;5.90;99.90
11242;DHT22;5678;52.370;9.006;2023-03-14T13:12:47;5.80;99.90
11242;DHT22;5678;52.370;9.006;2023-03-14T13:15:24;5.90;99.90
11242;DHT22;5678;52.370;9.006;2023-03-14T13:17:56;5.70;99.90
11242;DHT22;5678;52.370;9.006;2023-03-14T13:20:32;5.70;99.90
11242;DHT22;5678;52.370;9.006;2023-03-14T13:23:02;5.50;99.90
11242;DHT22;5678;52.370;9.006;2023-03-14T13:25:32;5.20;99.90
11242;DHT22;5678;52.370;9.006;2023-03-14T13:28:01;4.90;99.90
11242;DHT22;5678;52.370;9.006;2023-03-14T13:30:39;4.60;99.90
11242;DHT22;5678;52.370;9.006;2023-03-14T13:33:12;4.50;99.90
11242;DHT22;5678;52.370;9.006;2023-03-14T13:35:43;4.50;99.90
11242;DHT22;5678;52.370;9.006;2023-03-14T13:38:17;4.40;99.90
11242;DHT22;5678;52.370;9.006;2023-03-14T13:40:46;4.30;99.90
11242;DHT22;5678;52.370;9.006;2023-03-14T13:43:18;4.80;99.90
11242;DHT22;5678;52.370;9.006;2023-03-14T13:45:53;4.50;99.90
11242;DHT22;5678;52.370;9.006;2023-03-14T13:48:26;4.60;99.90
11242;DHT22;5678;52.370;9.006;2023-03-14T13:50:58;4.70;99.90
11242;DHT22;5678;52.370;9.006;2023-03-14T13:53:27;4.80;99.90
11242;DHT22;5678;52.370;9.006;2023-03-14T13:55:55;4.90;99.90
11242;DHT22;5678;52.370;9.006;2023-03-14T13:58:26;6.10;99.90
11242;DHT22;5678;52.370;9.006;2023-03-14T14:01:10;4.90;99.90
11242;DHT22;5678;52.370;9.006;2023-03-14T14:03:41;4.90;99.90
11242;DHT22;5678;52.370;9.006;2023-03-14T14:06:19;6.30;99.90
11242;DHT22;5678;52.370;9.006;2023-03-14T14:08:49;5.00;99.90
11242;DHT22;5678;52.370;9.006;2023-03-14T14:11:23;5.10;99.90
11242;DHT22;5678;52.370;9.006;2023-03-14T14:14:12;6.00;99.90
11242;DHT22;5678;52.370;9.006;2023-03-14T14:16:43;5.60;99.90
11242;DHT22;5678;52.370;9.006;2023-03-14T14:19:12;6.10;99.90
11242;DHT22;5678;52.370;9.006;2023-03-14T14:21:41;6.00;99.90
11242;DHT22;5678;52.370;9.006;2023-03-14T14:24:11;5.50;99.90
11242;DHT22;5678;52.370;9.006;2023-03-14T14:26:40;6.20;99.90
11242;DHT22;5678;52.370;9.006;2023-03-14T14:29:24;5.50;99.90
11242;DHT22;5678;52.370;9.006;2023-03-14T14:32:01;6.00;99.90
11242;DHT22;5678;52.370;9.006;2023-03-14T14:34:38;5.90;99.90
11242;DHT22;5678;52.370;9.006;2023-03-14T14:37:19;5.60;99.90
11242;DHT22;5678;52.370;9.006;2023-03-14T14:39:47;5.70;99.90
11242;DHT22;5678;52.370;9.006;2023-03-14T14:42:16;6.40;99.90
11242;DHT22;5678;52.370;9.006;2023-03-14T14:44:44;5.80;99.90
11242;DHT22;5678;52.370;9.006;2023-03-14T14:47:15;5.90;99.90
11242;DHT22;5678;52.370;9.006;2023-03-14T14:49:47;5.80;99.90
11242;DHT22;5678;52.370;9.006;2023-03-14T14:52:16;5.90;99.90
11242;DHT22;5678;52.370;9.006;2023-03-14T14:54:46;6.00;99.90
11242;DHT22;5678;52.370;9.006;2023-03-14T14:57:19;6.60;99.90
11242;DHT22;5678;52.370;9.006;2023-03-14T14:59:48;6.30;99.90
11242;DHT22;5678;52.370;9.006;2023-03-14T15:02:30;6.90;99.90
11242;DHT22;5678;52.370;9.006;2023-03-14T15:04:59;6.20;99.90
11242;DHT22;5678;52.370;9.006;2023-03-14T15:07:27;6.80;99.90
11242;DHT22;5678;52.370;9.006;2023-03-14T15:09:55;6.10;99.90
11242;DHT22;5678;52.370;9.006;2023-03-14T15:12:23;6.10;99.90
11242;DHT22;5678;52.370;9.006;2023-03-14T15:14:51;6.20;99.90
11242;DHT22;5678;52.370;9.006;2023-03-14T15:17:19;6.00;99.90
11242;DHT22;5678;52.370;9.006;2023-03-14T15:19:48;6.00;99.90
11242;DHT22;5678;52.370;9.006;2023-03-14T15:22:16;6.70;99.90
11242;DHT22;5678;52.370;9.006;2023-03-14T15:24:44;6.40;99.90
11242;DHT22;5678;52.370;9.006;2023-03-14T15:27:13;6.90;99.90
11242;DHT22;5678;52.370;9.006;2023-03-14T15:29:42;5.80;99.90
11242;DHT22;5678;52.370;9.006;2023-03-14T15:32:13;5.80;99.90
11242;DHT22;5678;52.370;9.006;2023-03-14T15:34:41;5.80;99.90
11242;DHT22;5678;52.370;9.006;2023-03-14T15:37:13;5.70;99.90
11242;DHT22;5678;52.370;9.006;2023-03-14T15:39:42;5.70;99.90
11242;DHT22;5678;52.370;9.006;2023-03-14T15:42:10;5.70;99.90
11242;DHT22;5678;52.370;9.006;2023-03-14T15:44:39;5.70;99.90
11242;DHT22;5678;52.370;9.006;2023-03-14T15:47:09;5.70;99.90
11242;DHT22;5678;52.370;9.006;2023-03-14T15:49:37;5.70;99.90
11242;DHT22;5678;52.370;9.006;2023-03-14T15:52:06;5.70;99.90
11242;DHT22;5678;52.370;9.006;2023-03-14T15:54:36;5.70;99.90
11242;DHT22;5678;52.370;9.006;2023-03-14T15:57:09;5.60;99.90
11242;DHT22;5678;52.370;9.006;2023-03-14T15:59:38;5.70;99.90
11242;DHT22;5678;52.370;9.006;2023-03-14T16:02:06;5.80;99.90
11242;DHT22;5678;52.370;9.006;2023-03-14T16:04:34;5.70;99.90
11242;DHT22;5678;52.370;9.006;2023-03-14T16:07:02;5.80;99.90
11242;DHT22;5678;52.370;9.006;2023-03-14T16:09:30;5.80;99.90
11242;DHT22;5678;52.370;9.006;2023-03-14T16:11:59;7.20;99.90
11242;DHT22;5678;52.370;9.006;2023-03-14T16:14:27;6.00;99.90
11242;DHT22;5678;52.370;9.006;2023-03-14T16:16:55;7.40;99.90
11242;DHT22;5678;52.370;9.006;2023-03-14T16:19:51;6.00;99.90
11242;DHT22;5678;52.370;9.006;2023-03-14T16:22:19;5.90;99.90
11242;DHT22;5678;52.370;9.006;2023-03-14T16:24:47;5.90;99.90